Arches, Utah
Current Conditions -  °F | °C
As of 2:53 PM on Tuesday 21 Oct 2014 (Local Time) from KCNY Reporting Station
Clear Clear  
Wind Chill: 76°   Ceiling: Unl
Heat Index: 76°   Visibility: 10mi
Dew Point: 39°   Wind: 17mph
Humidity: 26%   Direction: 200°SSW
Pressure: 29.91"   Gusts: 23mph
Location:  38.6903°N, 109.256°W
Report Text: KCNY 212053Z AUTO 20015G20KT 10SM CLR 24/04 A2991 RMK AO2 SLP080 T02440039 56025
Loading
Personal Weather Stations






























Interactive Weather Map New forecast layout! Learn more

10-Day Weather Forecast

Advertisements
Track Severe Weather on mobile